Time;durP1;ratioP1;P1;durP2;ratioP2;P2;SDS_P1;SDS_P2;PMS_P1;PMS_P2;Temp;Humidity;BMP_temperature;BMP_pressure;BME280_temperature;BME280_humidity;BME280_pressure;Samples;Min_cycle;Max_cycle;Signal;HPM_P1;HPM_P2
2023/07/30 00:00:52;;;;;;;7.07;3.05;;;22.40;55.00;;;;;;4986659;28;114375;-78
2023/07/30 00:03:19;;;;;;;8.07;3.70;;;22.40;55.00;;;;;;4984566;28;115033;-79
2023/07/30 00:05:56;;;;;;;7.57;3.50;;;22.40;56.10;;;;;;4986156;28;114569;-80
2023/07/30 00:08:23;;;;;;;5.18;2.72;;;22.30;56.10;;;;;;4987335;28;114212;-80
2023/07/30 00:10:50;;;;;;;5.75;2.70;;;22.00;56.50;;;;;;4969397;28;114286;-78
2023/07/30 00:13:17;;;;;;;4.85;2.72;;;21.90;57.10;;;;;;4985037;28;115013;-78
2023/07/30 00:15:47;;;;;;;3.92;2.25;;;21.80;56.60;;;;;;4985571;28;114258;-78
2023/07/30 00:18:15;;;;;;;5.82;3.10;;;21.80;56.90;;;;;;4987120;28;114245;-80
2023/07/30 00:20:42;;;;;;;6.47;3.30;;;21.90;56.30;;;;;;4987712;28;114307;-79
2023/07/30 00:23:09;;;;;;;4.30;2.60;;;22.00;56.20;;;;;;4984974;28;114991;-80
2023/07/30 00:25:36;;;;;;;4.47;2.70;;;22.00;56.30;;;;;;4968261;28;114898;-80
2023/07/30 00:28:03;;;;;;;4.00;2.53;;;22.10;55.90;;;;;;4986419;28;114150;-79
2023/07/30 00:30:30;;;;;;;3.95;2.20;;;22.10;56.00;;;;;;4985560;28;114338;-79
2023/07/30 00:32:57;;;;;;;4.63;2.72;;;22.10;55.80;;;;;;4985382;28;114934;-80
2023/07/30 00:35:25;;;;;;;4.13;2.58;;;22.20;55.60;;;;;;4984128;28;117466;-80
2023/07/30 00:37:52;;;;;;;3.78;2.40;;;22.20;55.60;;;;;;4986702;28;114122;-79
2023/07/30 00:40:19;;;;;;;3.55;2.08;;;22.20;55.60;;;;;;4985164;28;114472;-78
2023/07/30 00:42:46;;;;;;;3.85;1.63;;;22.30;55.30;;;;;;4984630;28;114817;-78
2023/07/30 00:45:13;;;;;;;3.85;2.50;;;22.30;55.70;;;;;;4985960;28;114595;-78
2023/07/30 00:47:40;;;;;;;3.35;2.20;;;22.30;55.00;;;;;;4987173;28;114336;-79
2023/07/30 00:50:08;;;;;;;3.78;2.35;;;22.30;55.10;;;;;;4969451;28;114366;-79
2023/07/30 00:52:35;;;;;;;3.50;2.08;;;22.40;55.30;;;;;;4984025;28;116285;-79
2023/07/30 00:55:03;;;;;;;3.40;2.22;;;22.30;55.60;;;;;;4984783;28;114679;-81
2023/07/30 00:57:30;;;;;;;4.97;2.40;;;22.30;55.10;;;;;;4986460;28;114250;-79
2023/07/30 00:59:57;;;;;;;4.80;2.20;;;22.30;55.00;;;;;;4970142;28;114398;-78
2023/07/30 01:02:24;;;;;;;3.63;2.22;;;22.30;55.30;;;;;;4985662;28;114331;-78
2023/07/30 01:04:51;;;;;;;4.75;2.13;;;22.30;55.00;;;;;;4984280;28;114723;-79
2023/07/30 01:07:19;;;;;;;3.55;2.00;;;22.30;55.00;;;;;;4985363;28;114056;-79
2023/07/30 01:09:46;;;;;;;3.25;1.90;;;22.30;55.10;;;;;;4985851;28;114464;-78
2023/07/30 01:12:13;;;;;;;4.55;2.28;;;22.30;55.30;;;;;;4986009;28;114801;-78
2023/07/30 01:14:41;;;;;;;3.72;2.08;;;22.30;55.00;;;;;;4986850;28;115535;-80
2023/07/30 01:17:09;;;;;;;4.55;2.25;;;22.30;54.90;;;;;;4989118;28;114238;-78
2023/07/30 01:19:36;;;;;;;3.58;2.00;;;22.30;55.00;;;;;;4988498;28;114386;-79
2023/07/30 01:22:03;;;;;;;3.97;2.20;;;22.40;55.00;;;;;;4987456;28;114871;-79
2023/07/30 01:24:30;;;;;;;4.82;1.70;;;22.30;54.90;;;;;;4987295;28;115228;-78
2023/07/30 01:27:24;;;;;;;3.25;1.77;;;22.40;55.80;;;;;;4989945;28;114314;-79
2023/07/30 01:29:54;;;;;;;3.90;1.85;;;22.40;55.20;;;;;;4987484;28;114123;-78
2023/07/30 01:32:25;;;;;;;3.72;1.70;;;22.30;55.40;;;;;;4987505;28;115004;-79
2023/07/30 01:34:53;;;;;;;3.33;1.90;;;22.30;55.30;;;;;;4987721;28;114676;-79
2023/07/30 01:37:21;;;;;;;3.53;1.77;;;22.30;55.50;;;;;;4988517;28;114455;-79
2023/07/30 01:39:48;;;;;;;5.22;2.00;;;22.30;55.70;;;;;;4988868;28;114255;-79
2023/07/30 01:42:15;;;;;;;3.15;1.80;;;22.20;55.90;;;;;;4970358;28;115100;-79
2023/07/30 01:44:42;;;;;;;3.60;2.05;;;22.20;56.70;;;;;;4970737;28;114859;-79
2023/07/30 01:47:09;;;;;;;3.30;1.98;;;22.20;55.40;;;;;;4972073;28;114408;-79
2023/07/30 01:49:37;;;;;;;2.63;1.63;;;22.10;55.40;;;;;;4989588;28;114244;-80
2023/07/30 01:52:04;;;;;;;3.42;1.90;;;22.20;55.50;;;;;;4988708;28;114876;-79
2023/07/30 01:54:31;;;;;;;4.65;1.98;;;22.20;55.60;;;;;;4970682;28;114798;-78
2023/07/30 01:56:59;;;;;;;3.42;1.90;;;22.10;55.50;;;;;;4971512;28;114513;-79
2023/07/30 01:59:26;;;;;;;2.90;1.80;;;22.10;55.60;;;;;;4971846;28;114434;-78
2023/07/30 02:01:53;;;;;;;3.03;1.80;;;22.10;55.60;;;;;;4970673;28;115255;-79
2023/07/30 02:04:20;;;;;;;3.65;1.88;;;22.20;55.50;;;;;;4988369;28;114727;-79
2023/07/30 02:06:48;;;;;;;4.00;2.00;;;22.10;55.50;;;;;;4987385;28;114211;-78
2023/07/30 02:09:15;;;;;;;3.53;2.00;;;22.10;55.50;;;;;;4989318;28;114148;-79
2023/07/30 02:11:42;;;;;;;4.40;2.20;;;22.20;55.40;;;;;;4970146;28;115841;-78
2023/07/30 02:14:10;;;;;;;3.00;1.90;;;22.20;55.40;;;;;;4988132;28;114647;-79
2023/07/30 02:16:37;;;;;;;2.75;1.80;;;22.20;55.60;;;;;;4971485;28;114339;-80
2023/07/30 02:19:04;;;;;;;3.58;1.88;;;22.20;55.40;;;;;;4987704;28;114444;-79
2023/07/30 02:21:32;;;;;;;4.25;2.03;;;22.20;56.00;;;;;;4987734;28;114823;-79
2023/07/30 02:23:59;;;;;;;4.68;2.20;;;22.20;55.50;;;;;;4987913;28;114692;-78
2023/07/30 02:26:26;;;;;;;3.35;2.03;;;22.20;55.50;;;;;;4988843;28;114182;-79
2023/07/30 02:28:54;;;;;;;2.67;1.85;;;22.10;55.40;;;;;;4989258;28;114123;-79
2023/07/30 02:31:21;;;;;;;2.97;1.88;;;22.10;55.40;;;;;;4986542;28;114941;-79
2023/07/30 02:33:48;;;;;;;4.28;2.30;;;22.10;55.30;;;;;;4987739;28;115239;-79
2023/07/30 02:36:15;;;;;;;3.33;1.75;;;22.10;55.50;;;;;;4988368;28;114124;-79
2023/07/30 02:38:42;;;;;;;3.75;2.25;;;22.20;55.30;;;;;;4988627;28;114262;-80
2023/07/30 02:41:09;;;;;;;3.38;1.95;;;22.10;55.30;;;;;;4987786;28;114940;-78
2023/07/30 02:43:36;;;;;;;3.85;1.77;;;22.10;55.40;;;;;;4986380;28;114977;-79
2023/07/30 02:46:03;;;;;;;3.05;1.70;;;22.10;55.40;;;;;;4954433;28;114551;-79
2023/07/30 02:48:30;;;;;;;2.97;1.80;;;22.00;55.40;;;;;;4987843;28;114085;-79
2023/07/30 02:50:57;;;;;;;3.92;2.30;;;22.00;55.50;;;;;;4987337;28;115160;-79
2023/07/30 02:53:24;;;;;;;3.47;1.90;;;22.00;55.40;;;;;;4987345;28;114650;-78
2023/07/30 02:55:52;;;;;;;4.00;1.95;;;22.10;55.40;;;;;;4987049;28;114173;-80
2023/07/30 02:58:19;;;;;;;3.67;1.90;;;22.10;55.30;;;;;;4987474;28;114360;-78
2023/07/30 03:00:46;;;;;;;3.10;1.60;;;22.10;55.30;;;;;;4970012;28;115241;-78
2023/07/30 03:03:13;;;;;;;3.33;1.67;;;22.10;55.30;;;;;;4987169;28;114583;-80
2023/07/30 03:05:43;;;;;;;3.22;1.70;;;22.10;55.30;;;;;;4986722;28;114408;-79
2023/07/30 03:08:10;;;;;;;2.80;1.90;;;22.10;55.40;;;;;;4987450;28;114409;-79
2023/07/30 03:10:38;;;;;;;3.63;2.10;;;22.10;55.20;;;;;;4986500;28;115061;-78
2023/07/30 03:13:05;;;;;;;3.53;1.77;;;22.10;55.40;;;;;;4986109;28;114700;-78
2023/07/30 03:15:32;;;;;;;3.67;2.08;;;22.10;55.10;;;;;;4988071;28;114048;-79
2023/07/30 03:17:59;;;;;;;3.88;1.90;;;22.10;55.10;;;;;;4987699;28;114237;-79
2023/07/30 03:20:26;;;;;;;2.92;1.73;;;22.20;55.60;;;;;;4986109;28;114883;-78
2023/07/30 03:22:54;;;;;;;4.25;1.80;;;22.10;55.30;;;;;;4985815;28;115153;-79
2023/07/30 03:25:21;;;;;;;2.58;1.50;;;22.00;55.30;;;;;;4986198;28;114272;-78
2023/07/30 03:27:48;;;;;;;2.80;1.60;;;22.00;55.20;;;;;;4987419;28;114587;-78
2023/07/30 03:30:15;;;;;;;3.20;1.90;;;22.10;55.20;;;;;;4986833;28;114828;-79
2023/07/30 03:32:42;;;;;;;3.28;1.83;;;22.10;55.20;;;;;;4986388;28;115242;-78
2023/07/30 03:35:09;;;;;;;4.55;1.98;;;22.10;55.20;;;;;;4987904;28;114212;-78
2023/07/30 03:37:36;;;;;;;3.05;1.58;;;22.00;55.30;;;;;;4987394;28;114343;-78
2023/07/30 03:40:05;;;;;;;3.08;1.73;;;22.10;55.10;;;;;;4985582;28;115148;-77
2023/07/30 03:42:32;;;;;;;3.00;1.85;;;22.10;55.10;;;;;;4985279;28;114643;-78
2023/07/30 03:44:59;;;;;;;3.33;1.60;;;22.10;55.10;;;;;;4969381;28;114028;-78
2023/07/30 03:47:26;;;;;;;3.85;1.92;;;22.20;55.00;;;;;;4986759;28;114456;-78
2023/07/30 03:49:54;;;;;;;3.13;1.70;;;22.20;54.90;;;;;;4985741;28;115382;-78
2023/07/30 03:52:21;;;;;;;3.45;1.80;;;22.20;55.00;;;;;;4985405;28;114659;-78
2023/07/30 03:54:50;;;;;;;2.63;1.55;;;22.30;54.80;;;;;;4987258;28;114319;-78
2023/07/30 03:57:17;;;;;;;3.72;1.70;;;22.30;54.70;;;;;;4986282;28;114121;-78
2023/07/30 03:59:44;;;;;;;3.55;1.60;;;22.50;54.80;;;;;;4986625;28;114849;-78
2023/07/30 04:02:15;;;;;;;2.47;1.40;;;22.70;54.20;;;;;;4985583;28;114577;-79
2023/07/30 04:04:44;;;;;;;4.15;1.83;;;22.80;53.90;;;;;;4986530;28;114532;-79
2023/07/30 04:07:11;;;;;;;3.15;1.85;;;22.80;53.90;;;;;;4987466;28;114208;-78
2023/07/30 04:09:38;;;;;;;3.10;1.70;;;22.90;54.10;;;;;;4984660;28;114863;-78
2023/07/30 04:12:05;;;;;;;3.25;1.67;;;22.80;54.00;;;;;;4986216;28;114571;-78
2023/07/30 04:14:32;;;;;;;3.20;1.70;;;22.90;54.10;;;;;;4987344;28;114202;-78
2023/07/30 04:16:59;;;;;;;3.90;1.70;;;23.00;53.90;;;;;;4986400;28;114111;-78
2023/07/30 04:19:27;;;;;;;4.25;1.80;;;23.20;53.60;;;;;;4985851;28;114813;-78
2023/07/30 04:21:54;;;;;;;4.15;1.85;;;23.30;53.20;;;;;;4984969;28;114856;-78
2023/07/30 04:24:21;;;;;;;2.80;1.60;;;23.10;52.90;;;;;;4986698;28;114240;-79
2023/07/30 04:26:48;;;;;;;3.75;1.90;;;23.10;52.90;;;;;;4986832;28;114478;-78
2023/07/30 04:29:16;;;;;;;2.63;1.60;;;23.10;53.00;;;;;;4985365;28;114868;-78
2023/07/30 04:31:44;;;;;;;3.95;1.60;;;23.10;52.70;;;;;;4984632;28;114632;-78
2023/07/30 04:34:11;;;;;;;3.50;1.73;;;23.20;52.80;;;;;;4986587;28;114333;-78
2023/07/30 04:36:38;;;;;;;5.10;1.58;;;23.20;52.90;;;;;;4985144;28;114358;-79
2023/07/30 04:39:05;;;;;;;3.03;1.73;;;23.20;52.90;;;;;;4984461;28;115287;-79
2023/07/30 04:41:34;;;;;;;3.40;1.90;;;23.30;52.90;;;;;;4984677;28;114617;-78
2023/07/30 04:44:03;;;;;;;2.95;1.80;;;23.30;52.90;;;;;;4986860;28;114106;-79
2023/07/30 04:46:32;;;;;;;3.17;1.50;;;23.40;52.50;;;;;;4985647;28;114081;-78
2023/07/30 04:49:02;;;;;;;3.75;1.70;;;23.50;52.50;;;;;;4986304;28;115426;-79
2023/07/30 04:51:29;;;;;;;4.43;1.48;;;23.60;52.40;;;;;;4972436;28;114149;-79
2023/07/30 04:53:56;;;;;;;3.17;1.90;;;23.60;52.10;;;;;;4991131;28;114118;-78
2023/07/30 04:56:25;;;;;;;4.32;1.55;;;23.70;52.20;;;;;;4989332;28;114567;-78
2023/07/30 04:58:52;;;;;;;3.85;1.95;;;23.70;52.20;;;;;;4955016;28;117079;-79
2023/07/30 05:01:19;;;;;;;3.80;1.90;;;23.80;52.00;;;;;;4988172;28;114896;-80
2023/07/30 05:03:46;;;;;;;4.32;2.30;;;23.80;51.90;;;;;;4988775;28;114450;-79
2023/07/30 05:06:13;;;;;;;5.55;2.80;;;23.90;51.90;;;;;;4973085;28;114293;-79
2023/07/30 05:08:40;;;;;;;3.58;1.50;;;23.90;51.90;;;;;;4972069;28;117261;-79
2023/07/30 05:11:07;;;;;;;3.50;2.05;;;23.90;51.50;;;;;;4987699;28;114560;-78
2023/07/30 05:13:35;;;;;;;7.20;2.30;;;24.00;51.50;;;;;;4989594;28;114068;-79
2023/07/30 05:16:02;;;;;;;5.22;1.80;;;24.10;51.30;;;;;;4989376;28;114049;-79
2023/07/30 05:18:29;;;;;;;5.40;2.28;;;24.10;51.60;;;;;;4971333;28;118415;-79
2023/07/30 05:20:56;;;;;;;4.10;2.17;;;24.10;51.20;;;;;;4988666;28;114548;-79
2023/07/30 05:23:34;;;;;;;4.22;1.90;;;24.20;51.20;;;;;;4988115;28;114162;-78
2023/07/30 05:26:01;;;;;;;4.85;2.13;;;24.20;51.00;;;;;;4989983;28;114183;-78
2023/07/30 05:28:28;;;;;;;4.18;1.80;;;24.20;50.70;;;;;;4989141;28;114771;-79
2023/07/30 05:30:56;;;;;;;4.93;2.03;;;24.30;50.40;;;;;;4988503;28;115351;-80
2023/07/30 05:33:23;;;;;;;6.63;2.42;;;24.30;50.70;;;;;;4988880;28;114301;-79
2023/07/30 05:35:50;;;;;;;3.83;2.10;;;24.40;50.60;;;;;;4988688;28;114326;-79
2023/07/30 05:38:17;;;;;;;3.40;2.10;;;24.50;50.10;;;;;;4987811;28;115510;-79
2023/07/30 05:40:44;;;;;;;3.97;2.08;;;24.60;50.10;;;;;;4988684;28;115103;-79
2023/07/30 05:43:11;;;;;;;3.30;1.98;;;24.70;49.90;;;;;;4971761;28;114319;-79
2023/07/30 05:45:38;;;;;;;3.08;1.50;;;24.80;49.70;;;;;;4989091;28;114296;-79
2023/07/30 05:48:05;;;;;;;5.50;1.85;;;24.80;49.00;;;;;;4986358;28;115136;-78
2023/07/30 05:50:32;;;;;;;3.35;1.70;;;24.90;48.90;;;;;;4986711;28;114667;-79
2023/07/30 05:52:59;;;;;;;2.75;1.60;;;25.00;48.50;;;;;;4988984;28;114266;-78
2023/07/30 05:55:26;;;;;;;3.10;1.40;;;25.00;48.10;;;;;;4971487;28;114311;-80
2023/07/30 05:57:53;;;;;;;3.25;1.55;;;25.10;47.80;;;;;;4988167;28;114831;-79
2023/07/30 06:00:20;;;;;;;3.63;1.30;;;25.20;47.50;;;;;;4986049;28;114605;-79
2023/07/30 06:02:48;;;;;;;2.30;1.27;;;25.30;47.50;;;;;;4987729;28;114479;-79
2023/07/30 06:05:15;;;;;;;2.65;1.30;;;25.30;47.40;;;;;;4989098;28;114149;-77
2023/07/30 06:07:42;;;;;;;2.45;1.27;;;25.30;46.90;;;;;;4969508;28;114858;-79
2023/07/30 06:10:09;;;;;;;2.78;1.60;;;25.40;46.60;;;;;;4986425;28;114733;-79
2023/07/30 06:12:36;;;;;;;2.42;1.30;;;25.60;46.70;;;;;;4986791;28;114244;-79
2023/07/30 06:15:06;;;;;;;2.40;1.33;;;25.60;46.00;;;;;;4988183;28;114362;-79
2023/07/30 06:17:33;;;;;;;2.60;1.58;;;25.80;45.20;;;;;;4986284;28;115024;-79
2023/07/30 06:20:00;;;;;;;3.55;1.70;;;25.90;45.70;;;;;;4985927;28;115112;-78
2023/07/30 06:22:28;;;;;;;3.20;1.50;;;26.00;44.70;;;;;;4987049;28;114096;-78
2023/07/30 06:24:55;;;;;;;3.30;1.33;;;26.10;44.50;;;;;;4986791;28;114419;-79
2023/07/30 06:27:39;;;;;;;2.67;1.30;;;26.20;44.00;;;;;;4987024;28;115979;-79
2023/07/30 06:30:06;;;;;;;3.55;1.23;;;26.30;44.00;;;;;;4986443;28;115582;-79
2023/07/30 06:32:33;;;;;;;2.58;1.30;;;26.40;44.10;;;;;;4988109;28;114240;-80
2023/07/30 06:35:00;;;;;;;2.80;1.60;;;26.50;43.90;;;;;;4988216;28;114242;-80
2023/07/30 06:37:27;;;;;;;3.00;1.42;;;26.50;43.10;;;;;;4986664;28;114972;-79
2023/07/30 06:39:54;;;;;;;3.55;2.38;;;26.50;42.50;;;;;;4987266;28;114621;-79
2023/07/30 06:42:21;;;;;;;2.90;1.20;;;26.50;42.50;;;;;;4986932;28;114070;-78
2023/07/30 06:44:48;;;;;;;2.38;1.33;;;26.50;42.30;;;;;;4988183;28;114504;-78
2023/07/30 06:47:15;;;;;;;3.60;1.38;;;26.50;42.30;;;;;;4986116;28;114978;-79
2023/07/30 06:49:42;;;;;;;2.85;1.30;;;26.60;42.40;;;;;;4987289;28;114696;-79
2023/07/30 06:52:09;;;;;;;2.28;1.20;;;26.60;42.30;;;;;;4971104;28;114264;-79
2023/07/30 06:54:36;;;;;;;2.58;1.50;;;26.50;42.30;;;;;;4989270;28;114146;-78
2023/07/30 06:57:06;;;;;;;2.75;1.48;;;26.50;42.40;;;;;;4987622;28;115075;-78
2023/07/30 06:59:34;;;;;;;3.13;1.40;;;26.40;42.60;;;;;;4986990;28;116014;-78
2023/07/30 07:02:01;;;;;;;2.80;1.20;;;26.40;42.50;;;;;;4986186;28;114203;-79
2023/07/30 07:04:28;;;;;;;2.95;1.60;;;26.40;43.10;;;;;;4988356;28;114035;-78
2023/07/30 07:06:55;;;;;;;2.45;1.25;;;26.50;42.90;;;;;;4986052;28;115383;-79
2023/07/30 07:09:22;;;;;;;2.15;1.33;;;26.40;42.70;;;;;;4985850;28;114703;-79
2023/07/30 07:11:49;;;;;;;2.40;1.20;;;26.40;42.70;;;;;;4986583;28;114278;-78
2023/07/30 07:14:16;;;;;;;2.95;1.15;;;26.30;41.80;;;;;;4987848;28;114152;-78
2023/07/30 07:16:44;;;;;;;4.25;1.13;;;26.30;42.20;;;;;;4986353;28;114955;-79
2023/07/30 07:19:11;;;;;;;2.83;1.50;;;26.30;42.20;;;;;;4986839;28;115059;-78
2023/07/30 07:21:38;;;;;;;2.28;1.30;;;26.30;41.80;;;;;;4987150;28;114168;-78
2023/07/30 07:24:05;;;;;;;4.35;3.45;;;26.30;42.10;;;;;;4987449;28;114192;-79
2023/07/30 07:26:32;;;;;;;4.90;3.55;;;26.30;41.80;;;;;;4985774;28;114858;-79
2023/07/30 07:28:59;;;;;;;5.13;3.53;;;26.30;42.20;;;;;;4986130;28;114829;-78
2023/07/30 07:31:27;;;;;;;3.75;2.00;;;26.30;42.40;;;;;;4986049;28;114235;-77
2023/07/30 07:33:54;;;;;;;3.28;1.23;;;26.20;42.60;;;;;;4988080;28;114421;-78
2023/07/30 07:36:21;;;;;;;2.30;1.35;;;26.20;42.90;;;;;;4985070;28;115291;-78
2023/07/30 07:38:48;;;;;;;3.40;1.98;;;26.30;42.30;;;;;;4986342;28;114855;-79
2023/07/30 07:41:18;;;;;;;3.30;1.70;;;26.30;43.00;;;;;;4987390;28;114080;-79
2023/07/30 07:43:46;;;;;;;2.63;1.20;;;26.30;43.00;;;;;;4986813;28;114471;-79
2023/07/30 07:46:13;;;;;;;3.25;1.60;;;26.30;42.40;;;;;;4986907;28;114958;-79
2023/07/30 07:48:40;;;;;;;3.38;1.42;;;26.30;43.10;;;;;;4968866;28;115238;-79
2023/07/30 07:51:08;;;;;;;2.53;1.50;;;26.30;43.00;;;;;;4985405;28;114472;-78
2023/07/30 07:53:36;;;;;;;3.30;1.48;;;26.30;43.10;;;;;;4969004;28;114575;-79
2023/07/30 07:56:03;;;;;;;3.00;1.35;;;26.30;43.40;;;;;;4984668;28;114942;-79
2023/07/30 07:58:30;;;;;;;3.30;1.27;;;26.30;42.90;;;;;;4985942;28;114527;-78
2023/07/30 08:00:58;;;;;;;5.03;2.15;;;26.30;42.40;;;;;;4985542;28;114200;-78
2023/07/30 08:03:28;;;;;;;2.85;1.40;;;26.20;42.40;;;;;;4968917;28;114069;-78
2023/07/30 08:05:55;;;;;;;3.00;1.20;;;26.10;42.80;;;;;;4985386;28;114860;-78
2023/07/30 08:08:24;;;;;;;2.05;1.23;;;26.10;43.30;;;;;;4986086;28;114919;-79
2023/07/30 08:10:53;;;;;;;2.33;1.13;;;26.10;43.30;;;;;;4986632;28;114310;-79
2023/07/30 08:13:20;;;;;;;2.50;1.25;;;26.10;43.20;;;;;;4986388;28;114359;-78
2023/07/30 08:15:47;;;;;;;2.65;1.48;;;26.10;43.60;;;;;;4983809;28;115487;-79
2023/07/30 08:18:14;;;;;;;2.92;1.50;;;26.10;43.60;;;;;;4985458;28;114674;-78
2023/07/30 08:20:41;;;;;;;2.17;1.30;;;26.20;43.50;;;;;;4984490;28;114381;-78
2023/07/30 08:23:08;;;;;;;2.55;1.50;;;26.20;43.50;;;;;;4986239;28;114351;-78
2023/07/30 08:25:35;;;;;;;5.90;1.60;;;26.20;43.50;;;;;;4984974;28;116110;-79
2023/07/30 08:28:02;;;;;;;2.92;1.50;;;26.20;43.60;;;;;;4985478;28;115038;-79
2023/07/30 08:30:29;;;;;;;2.58;1.60;;;26.20;43.50;;;;;;4986219;28;114196;-79
2023/07/30 08:32:57;;;;;;;3.05;1.50;;;26.20;44.00;;;;;;4985325;28;114386;-79
2023/07/30 08:35:24;;;;;;;3.35;1.80;;;26.20;43.80;;;;;;4983517;28;115170;-78
2023/07/30 08:37:54;;;;;;;4.40;1.60;;;26.30;43.90;;;;;;4987394;28;115176;-78
2023/07/30 08:40:23;;;;;;;4.45;2.00;;;26.30;43.50;;;;;;4985552;28;114359;-79
2023/07/30 08:42:53;;;;;;;4.03;1.60;;;26.30;42.90;;;;;;4986075;28;114077;-79
2023/07/30 08:45:20;;;;;;;3.45;1.70;;;26.30;43.10;;;;;;4984802;28;115326;-79
2023/07/30 08:47:47;;;;;;;2.97;1.48;;;26.20;43.50;;;;;;4983571;28;114926;-79
2023/07/30 08:50:14;;;;;;;2.30;1.45;;;26.20;43.20;;;;;;4986084;28;114355;-77
2023/07/30 08:52:41;;;;;;;2.80;1.75;;;26.10;43.00;;;;;;4985762;28;114322;-78
2023/07/30 08:55:09;;;;;;;2.42;1.33;;;26.00;43.60;;;;;;4983857;28;115145;-79
2023/07/30 08:57:36;;;;;;;3.03;1.70;;;26.10;43.70;;;;;;4983902;28;115122;-78
2023/07/30 09:00:06;;;;;;;3.45;1.63;;;26.00;44.10;;;;;;4984531;28;114471;-80
2023/07/30 09:02:35;;;;;;;2.20;1.20;;;26.10;44.20;;;;;;4984804;28;114063;-78
2023/07/30 09:05:03;;;;;;;2.70;1.50;;;26.00;44.00;;;;;;4982875;28;116799;-78
2023/07/30 09:07:30;;;;;;;2.80;1.70;;;26.00;43.80;;;;;;4967570;28;114792;-77
2023/07/30 09:09:57;;;;;;;2.88;1.80;;;25.90;44.00;;;;;;4989947;28;114353;-78
2023/07/30 09:12:34;;;;;;;2.60;1.48;;;26.00;44.60;;;;;;4985914;28;114121;-78
2023/07/30 09:15:05;;;;;;;3.58;1.55;;;26.00;44.60;;;;;;4984814;28;115334;-78
2023/07/30 09:17:33;;;;;;;2.60;1.48;;;26.00;44.70;;;;;;4983147;28;116889;-78
2023/07/30 09:20:01;;;;;;;3.50;1.45;;;26.00;44.60;;;;;;4985340;28;114414;-79
2023/07/30 09:22:29;;;;;;;3.10;1.50;;;26.00;44.50;;;;;;4984582;28;114282;-79
2023/07/30 09:24:57;;;;;;;2.65;1.48;;;26.00;44.40;;;;;;4984676;28;115044;-78
2023/07/30 09:27:27;;;;;;;2.38;1.40;;;26.00;44.10;;;;;;4983595;28;114572;-78
2023/07/30 09:29:59;;;;;;;2.53;1.50;;;26.00;44.00;;;;;;4984049;28;114209;-78
2023/07/30 09:32:53;;;;;;;2.95;1.70;;;26.00;44.10;;;;;;4968436;28;114306;-81
2023/07/30 09:35:20;;;;;;;2.80;1.65;;;26.00;44.00;;;;;;4986601;28;115317;-79
2023/07/30 09:37:47;;;;;;;2.75;1.50;;;25.90;44.10;;;;;;4970587;28;114522;-78
2023/07/30 09:40:15;;;;;;;3.80;1.92;;;25.90;44.00;;;;;;4989034;28;114151;-78
2023/07/30 09:42:46;;;;;;;3.13;2.00;;;25.90;44.10;;;;;;4971395;28;114234;-78
2023/07/30 09:45:23;;;;;;;2.50;1.50;;;25.90;43.90;;;;;;4988128;28;114866;-78
2023/07/30 09:47:51;;;;;;;4.15;1.67;;;25.80;44.30;;;;;;4987584;28;114835;-79
2023/07/30 09:50:18;;;;;;;2.80;1.67;;;25.80;44.60;;;;;;4987627;28;114364;-78
2023/07/30 09:52:45;;;;;;;2.20;1.45;;;25.80;44.60;;;;;;4989042;28;114149;-79
2023/07/30 09:55:12;;;;;;;4.10;2.00;;;25.80;44.60;;;;;;4970023;28;114924;-79
2023/07/30 09:57:39;;;;;;;3.83;1.73;;;25.80;45.00;;;;;;4987761;28;114654;-78
2023/07/30 10:00:08;;;;;;;3.45;1.70;;;25.80;44.90;;;;;;4988579;28;114040;-77
2023/07/30 10:02:41;;;;;;;2.42;1.60;;;25.80;45.10;;;;;;4988748;28;114310;-78
2023/07/30 10:05:12;;;;;;;3.67;1.60;;;25.80;45.00;;;;;;4969882;28;116103;-79
2023/07/30 10:07:41;;;;;;;2.90;1.58;;;25.80;45.00;;;;;;4986308;28;115696;-79
2023/07/30 10:10:09;;;;;;;2.65;1.80;;;25.80;45.30;;;;;;4986939;28;114395;-78
2023/07/30 10:12:36;;;;;;;2.92;1.42;;;25.80;45.30;;;;;;4987181;28;114345;-78
2023/07/30 10:15:03;;;;;;;3.50;1.60;;;25.80;45.30;;;;;;4986767;28;115068;-79
2023/07/30 10:17:32;;;;;;;4.43;1.80;;;25.80;45.80;;;;;;4986473;28;114582;-78
2023/07/30 10:20:19;;;;;;;4.53;2.83;;;25.80;45.10;;;;;;4986326;28;114391;-78
2023/07/30 10:22:46;;;;;;;4.15;1.95;;;25.90;45.50;;;;;;4988590;28;114173;-78
2023/07/30 10:25:13;;;;;;;2.65;1.63;;;25.80;45.20;;;;;;4986689;28;114912;-78
2023/07/30 10:27:43;;;;;;;2.65;1.60;;;25.80;45.60;;;;;;4987380;28;114540;-79
2023/07/30 10:30:14;;;;;;;2.88;1.90;;;25.80;45.80;;;;;;4987958;28;114421;-78
2023/07/30 10:33:04;;;;;;;2.45;1.70;;;25.80;45.10;;;;;;4970960;28;114310;-78
2023/07/30 10:35:35;;;;;;;2.88;1.67;;;25.90;44.90;;;;;;4986562;28;116124;-79
2023/07/30 10:38:17;;;;;;;2.90;1.80;;;25.90;45.10;;;;;;4988111;28;114656;-80
2023/07/30 10:41:10;;;;;;;4.85;2.05;;;25.90;45.50;;;;;;4988105;28;114371;-79
2023/07/30 10:43:48;;;;;;;3.00;1.75;;;25.90;45.40;;;;;;4986668;28;114403;-80
2023/07/30 10:46:16;;;;;;;3.67;1.67;;;25.80;45.80;;;;;;4985332;28;115754;-80
2023/07/30 10:48:47;;;;;;;5.22;2.13;;;25.80;46.00;;;;;;4985939;28;114585;-79
2023/07/30 10:51:16;;;;;;;4.97;2.35;;;25.80;46.00;;;;;;4986670;28;114491;-79
2023/07/30 10:53:48;;;;;;;3.30;2.00;;;25.80;46.40;;;;;;4987772;28;114140;-80
2023/07/30 10:56:23;;;;;;;2.60;1.42;;;25.70;46.60;;;;;;4985748;28;114865;-79
2023/07/30 10:58:51;;;;;;;5.45;2.05;;;25.70;46.00;;;;;;4969454;28;114618;-79
2023/07/30 11:01:19;;;;;;;4.25;2.35;;;25.70;46.50;;;;;;4986490;28;114328;-81
2023/07/30 11:03:52;;;;;;;2.75;1.80;;;25.70;46.60;;;;;;4986957;28;114138;-78
2023/07/30 11:06:26;;;;;;;3.33;1.80;;;25.70;46.40;;;;;;4985499;28;115512;-79
2023/07/30 11:08:53;;;;;;;3.28;1.83;;;25.70;46.50;;;;;;4986579;28;114641;-79
2023/07/30 11:11:20;;;;;;;4.40;1.98;;;25.60;46.90;;;;;;4986959;28;114162;-79
2023/07/30 11:13:47;;;;;;;3.00;1.98;;;25.60;46.80;;;;;;4986236;28;114440;-79
2023/07/30 11:16:15;;;;;;;3.72;2.20;;;25.60;46.60;;;;;;4986354;28;115302;-80
2023/07/30 11:18:42;;;;;;;3.30;2.20;;;25.50;46.80;;;;;;4985234;28;114855;-79
2023/07/30 11:21:11;;;;;;;3.47;1.90;;;25.50;46.70;;;;;;4985893;28;114486;-80
2023/07/30 11:23:39;;;;;;;2.95;1.65;;;25.40;47.10;;;;;;4985717;28;114372;-80
2023/07/30 11:26:07;;;;;;;3.10;1.90;;;25.40;46.80;;;;;;4986149;28;115008;-80
2023/07/30 11:28:37;;;;;;;3.60;1.85;;;25.30;46.50;;;;;;4985388;28;114628;-80
2023/07/30 11:31:13;;;;;;;2.83;1.70;;;25.30;46.70;;;;;;4986075;28;114267;-80
2023/07/30 11:33:42;;;;;;;3.38;1.88;;;25.30;47.20;;;;;;4987353;28;114096;-78
2023/07/30 11:36:11;;;;;;;3.65;2.00;;;25.30;47.40;;;;;;4967172;28;116981;-78
2023/07/30 11:38:39;;;;;;;4.60;2.17;;;25.30;47.20;;;;;;4985755;28;114705;-80
2023/07/30 11:41:09;;;;;;;3.53;2.10;;;25.30;47.10;;;;;;4985843;28;114524;-79
2023/07/30 11:43:37;;;;;;;3.63;2.00;;;25.30;46.50;;;;;;4986119;28;114542;-79
2023/07/30 11:46:11;;;;;;;3.75;2.20;;;25.30;46.60;;;;;;4968783;28;117006;-79
2023/07/30 11:48:39;;;;;;;3.92;2.60;;;25.30;46.90;;;;;;4985309;28;114648;-79
2023/07/30 11:51:06;;;;;;;3.92;2.20;;;25.30;47.00;;;;;;4986123;28;114323;-79
2023/07/30 11:53:50;;;;;;;4.63;2.45;;;25.30;47.00;;;;;;4985997;28;114543;-78
2023/07/30 11:56:22;;;;;;;3.97;2.00;;;25.30;47.00;;;;;;4985873;28;114856;-79
2023/07/30 11:58:50;;;;;;;3.75;2.10;;;25.20;47.10;;;;;;4985272;28;114906;-79
2023/07/30 12:01:17;;;;;;;4.53;2.13;;;25.30;46.70;;;;;;4985304;28;114407;-80
2023/07/30 12:03:44;;;;;;;4.35;2.28;;;25.30;47.30;;;;;;4970468;28;114217;-81
2023/07/30 12:06:12;;;;;;;4.00;2.22;;;25.30;46.80;;;;;;4985280;28;114990;-79
2023/07/30 12:08:39;;;;;;;3.65;2.45;;;25.30;46.60;;;;;;4986184;28;114964;-80
2023/07/30 12:11:07;;;;;;;3.08;1.85;;;25.30;46.90;;;;;;4987436;28;114391;-80
2023/07/30 12:13:45;;;;;;;3.88;1.92;;;25.30;46.40;;;;;;4986793;28;114135;-79
2023/07/30 12:16:13;;;;;;;3.75;2.63;;;25.30;46.70;;;;;;4970042;28;117307;-80
2023/07/30 12:18:40;;;;;;;2.75;1.70;;;25.30;46.70;;;;;;4987262;28;114753;-79
2023/07/30 12:21:07;;;;;;;3.95;2.75;;;25.20;46.70;;;;;;4986540;28;114371;-80
2023/07/30 12:23:35;;;;;;;4.28;1.75;;;25.20;46.90;;;;;;4984876;28;114432;-79
2023/07/30 12:26:04;;;;;;;3.53;2.00;;;25.20;46.80;;;;;;4983668;28;115249;-80
2023/07/30 12:28:33;;;;;;;3.67;1.90;;;25.20;46.70;;;;;;4984067;28;118313;-80
2023/07/30 12:31:01;;;;;;;4.20;1.70;;;25.20;46.90;;;;;;4985908;28;114357;-79
2023/07/30 12:33:28;;;;;;;3.22;1.80;;;25.20;47.10;;;;;;4986353;28;114152;-80
2023/07/30 12:35:55;;;;;;;2.92;2.08;;;25.20;47.00;;;;;;4983805;28;115184;-79
2023/07/30 12:38:22;;;;;;;3.47;2.10;;;25.20;47.30;;;;;;4985053;28;114752;-79
2023/07/30 12:40:49;;;;;;;3.42;2.00;;;25.20;47.20;;;;;;4985176;28;114314;-81